createdAt,value
2023-06-22T00:01:24.348Z,24.59
2023-06-22T00:03:51.888Z,24.60
2023-06-22T00:06:19.442Z,24.60
2023-06-22T00:08:47.067Z,24.50
2023-06-22T00:11:14.757Z,24.48
2023-06-22T00:13:42.397Z,24.46
2023-06-22T00:16:09.847Z,24.31
2023-06-22T00:18:37.603Z,24.22
2023-06-22T00:21:05.726Z,24.27
2023-06-22T00:23:35.556Z,24.27
2023-06-22T00:26:04.426Z,24.16
2023-06-22T00:28:31.676Z,24.21
2023-06-22T00:30:59.293Z,24.20
2023-06-22T00:33:27.166Z,24.17
2023-06-22T00:35:54.857Z,24.29
2023-06-22T00:38:22.086Z,24.18
2023-06-22T00:40:50.069Z,24.11
2023-06-22T00:43:17.913Z,24.17
2023-06-22T00:45:45.436Z,24.14
2023-06-22T00:48:15.244Z,24.01
2023-06-22T00:50:43.194Z,24.06
2023-06-22T00:53:11.852Z,23.89
2023-06-22T00:55:46.578Z,24.00
2023-06-22T00:58:14.810Z,23.97
2023-06-22T01:00:43.725Z,23.97
2023-06-22T01:03:11.931Z,23.95
2023-06-22T01:05:41.526Z,23.93
2023-06-22T01:08:32.624Z,23.95
2023-06-22T01:11:12.131Z,23.87
2023-06-22T01:14:00.750Z,23.80
2023-06-22T01:16:36.551Z,23.76
2023-06-22T01:19:32.050Z,23.78
2023-06-22T01:22:02.328Z,23.60
2023-06-22T01:25:04.435Z,23.72
2023-06-22T01:28:17.593Z,23.71
2023-06-22T01:30:50.648Z,23.20
2023-06-22T01:33:18.667Z,23.17
2023-06-22T01:35:46.094Z,23.22
2023-06-22T01:38:14.021Z,23.32
2023-06-22T01:40:41.890Z,23.40
2023-06-22T01:43:10.214Z,23.49
2023-06-22T01:45:37.593Z,23.31
2023-06-22T01:48:09.593Z,23.34
2023-06-22T01:50:37.290Z,23.40
2023-06-22T01:53:06.344Z,23.38
2023-06-22T01:55:33.658Z,23.37
2023-06-22T01:58:01.333Z,23.38
2023-06-22T02:00:35.006Z,23.44
2023-06-22T02:03:21.317Z,23.38
2023-06-22T02:06:24.885Z,23.42
2023-06-22T02:09:00.641Z,23.37
2023-06-22T02:11:31.500Z,23.05
2023-06-22T02:13:59.832Z,23.12
2023-06-22T02:16:30.918Z,22.99
2023-06-22T02:19:04.138Z,22.97
2023-06-22T02:21:35.235Z,22.91
2023-06-22T02:24:02.780Z,23.01
2023-06-22T02:26:33.312Z,22.98
2023-06-22T02:29:03.005Z,23.05
2023-06-22T02:31:31.732Z,23.07
2023-06-22T02:34:02.301Z,23.11
2023-06-22T02:36:31.793Z,23.10
2023-06-22T02:39:04.607Z,23.08
2023-06-22T02:41:31.849Z,23.12
2023-06-22T02:43:59.042Z,23.11
2023-06-22T02:46:26.644Z,23.12
2023-06-22T02:48:54.171Z,23.02
2023-06-22T02:51:21.566Z,22.99
2023-06-22T02:53:48.815Z,22.97
2023-06-22T02:56:18.653Z,22.91
2023-06-22T02:58:46.039Z,23.00
2023-06-22T03:01:14.979Z,22.90
2023-06-22T03:03:45.297Z,22.93
2023-06-22T03:06:15.245Z,22.79
2023-06-22T03:08:43.102Z,22.87
2023-06-22T03:11:11.228Z,22.79
2023-06-22T03:13:38.366Z,22.81
2023-06-22T03:16:07.187Z,22.87
2023-06-22T03:18:34.685Z,22.55
2023-06-22T03:21:03.373Z,22.56
2023-06-22T03:23:32.488Z,22.49
2023-06-22T03:25:59.864Z,22.56
2023-06-22T03:28:27.059Z,22.64
2023-06-22T03:30:54.363Z,22.68
2023-06-22T03:33:21.556Z,22.71
2023-06-22T03:35:48.856Z,22.76
2023-06-22T03:38:16.106Z,22.58
2023-06-22T03:40:43.269Z,22.64
2023-06-22T03:43:10.599Z,22.59
2023-06-22T03:45:38.260Z,22.59
2023-06-22T03:48:09.076Z,22.63
2023-06-22T03:50:36.759Z,22.59
2023-06-22T03:53:04.068Z,22.64
2023-06-22T03:55:31.354Z,22.66
2023-06-22T03:57:58.571Z,22.70
2023-06-22T04:00:25.800Z,22.78
2023-06-22T04:02:53.112Z,22.70
2023-06-22T04:05:20.459Z,22.52
2023-06-22T04:07:47.662Z,22.43
2023-06-22T04:10:16.639Z,22.62
2023-06-22T04:12:45.347Z,22.71
2023-06-22T04:15:13.172Z,22.74
2023-06-22T04:17:40.523Z,22.77
2023-06-22T04:20:09.083Z,22.89
2023-06-22T04:22:36.368Z,22.94
2023-06-22T04:25:03.960Z,22.86
2023-06-22T04:27:31.112Z,22.95
2023-06-22T04:30:01.479Z,22.87
2023-06-22T04:32:28.871Z,23.04
2023-06-22T04:34:56.127Z,23.05
2023-06-22T04:37:24.532Z,23.08
2023-06-22T04:39:51.672Z,23.06
2023-06-22T04:42:18.857Z,23.21
2023-06-22T04:44:45.996Z,23.20
2023-06-22T04:47:13.252Z,23.21
2023-06-22T04:49:41.504Z,23.31
2023-06-22T04:52:13.493Z,23.48
2023-06-22T04:54:48.692Z,23.60
2023-06-22T04:57:16.349Z,23.64
2023-06-22T04:59:43.947Z,23.62
2023-06-22T05:02:11.526Z,23.72
2023-06-22T05:04:42.388Z,23.87
2023-06-22T05:07:10.229Z,23.93
2023-06-22T05:09:37.438Z,23.92
2023-06-22T05:12:07.233Z,24.13
2023-06-22T05:14:36.484Z,24.17
2023-06-22T05:17:05.205Z,24.25
2023-06-22T05:19:35.021Z,24.10
2023-06-22T05:22:03.193Z,24.33
2023-06-22T05:24:30.400Z,24.33
2023-06-22T05:26:57.760Z,24.33
2023-06-22T05:29:25.191Z,24.45
2023-06-22T05:31:52.637Z,24.60
2023-06-22T05:34:19.976Z,24.72
2023-06-22T05:36:47.174Z,24.83
2023-06-22T05:39:16.256Z,24.91
2023-06-22T05:41:46.080Z,25.08
2023-06-22T05:44:13.859Z,25.26
2023-06-22T05:46:47.148Z,25.42
2023-06-22T05:49:15.078Z,25.51
2023-06-22T05:51:43.789Z,25.69
2023-06-22T05:54:11.603Z,25.68
2023-06-22T05:56:38.894Z,25.72
2023-06-22T05:59:06.608Z,25.82
2023-06-22T06:01:36.998Z,25.89
2023-06-22T06:04:05.783Z,26.00
2023-06-22T06:06:33.653Z,26.15
2023-06-22T06:09:01.904Z,26.22
2023-06-22T06:11:29.707Z,26.37
2023-06-22T06:13:57.106Z,26.28
2023-06-22T06:16:24.626Z,26.35
2023-06-22T06:18:52.231Z,26.47
2023-06-22T06:21:19.844Z,26.60
2023-06-22T06:23:48.300Z,26.68
2023-06-22T06:26:17.651Z,26.65
2023-06-22T06:28:45.378Z,26.62
2023-06-22T06:31:13.489Z,26.74
2023-06-22T06:33:40.864Z,26.81
2023-06-22T06:36:09.611Z,26.94
2023-06-22T06:38:36.857Z,27.00
2023-06-22T06:41:04.328Z,27.24
2023-06-22T06:43:32.126Z,27.23
2023-06-22T06:45:59.988Z,27.30
2023-06-22T06:48:28.137Z,27.53
2023-06-22T06:50:55.832Z,27.67
2023-06-22T06:53:23.343Z,27.58
2023-06-22T06:55:50.972Z,27.44
2023-06-22T06:58:18.740Z,27.82
2023-06-22T07:00:46.310Z,27.85
2023-06-22T07:03:13.839Z,28.05
2023-06-22T07:05:41.626Z,27.85
2023-06-22T07:08:09.419Z,27.83
2023-06-22T07:10:37.550Z,28.09
2023-06-22T07:13:05.159Z,28.36
2023-06-22T07:15:32.374Z,28.61
2023-06-22T07:18:00.249Z,28.79
2023-06-22T07:20:28.752Z,28.97
2023-06-22T07:22:56.232Z,28.75
2023-06-22T07:25:23.445Z,29.05
2023-06-22T07:28:07.036Z,28.60
2023-06-22T07:30:35.541Z,28.98
2023-06-22T07:33:05.286Z,29.09
2023-06-22T07:35:34.254Z,29.12
2023-06-22T07:38:05.323Z,29.42
2023-06-22T07:40:34.817Z,29.70
2023-06-22T07:43:04.678Z,29.92
2023-06-22T07:45:34.539Z,30.01
2023-06-22T07:48:02.821Z,30.08
2023-06-22T07:50:34.580Z,29.83
2023-06-22T07:53:02.275Z,29.87
2023-06-22T07:55:30.118Z,30.03
2023-06-22T07:57:57.694Z,30.02
2023-06-22T08:00:25.533Z,30.31
2023-06-22T08:02:53.975Z,30.32
2023-06-22T08:05:23.142Z,30.18
2023-06-22T08:07:51.896Z,30.66
2023-06-22T08:10:20.494Z,30.95
2023-06-22T08:12:47.889Z,30.80
2023-06-22T08:15:15.769Z,30.98
2023-06-22T08:17:44.733Z,31.02
2023-06-22T08:20:13.867Z,31.36
2023-06-22T08:22:43.358Z,31.59
2023-06-22T08:25:11.952Z,31.47
2023-06-22T08:27:39.356Z,32.13
2023-06-22T08:30:12.024Z,32.49
2023-06-22T08:32:39.488Z,32.77
2023-06-22T08:35:09.311Z,33.19
2023-06-22T08:37:37.887Z,33.30
2023-06-22T08:40:09.646Z,33.37
2023-06-22T08:42:42.945Z,33.58
2023-06-22T08:45:11.644Z,33.72
2023-06-22T08:47:39.766Z,33.85
2023-06-22T08:50:09.998Z,33.89
2023-06-22T08:52:44.552Z,32.67
2023-06-22T08:55:15.767Z,33.03
2023-06-22T08:57:43.921Z,32.08
2023-06-22T09:00:17.788Z,31.72
2023-06-22T09:02:47.146Z,32.18
2023-06-22T09:05:15.983Z,32.16
2023-06-22T09:07:44.423Z,32.36
2023-06-22T09:10:12.183Z,32.67
2023-06-22T09:12:42.891Z,32.44
2023-06-22T09:15:16.811Z,32.88
2023-06-22T09:17:47.821Z,32.60
2023-06-22T09:20:16.949Z,32.56
2023-06-22T09:22:44.780Z,33.06
2023-06-22T09:25:13.414Z,33.14
2023-06-22T09:27:41.200Z,33.48
2023-06-22T09:30:09.560Z,33.05
2023-06-22T09:32:37.075Z,32.92
2023-06-22T09:35:07.750Z,33.02
2023-06-22T09:37:35.368Z,32.52
2023-06-22T09:40:09.409Z,32.80
2023-06-22T09:42:37.230Z,33.15
2023-06-22T09:45:05.698Z,33.35
2023-06-22T09:47:33.430Z,33.22
2023-06-22T09:50:01.252Z,33.40
2023-06-22T09:52:43.386Z,33.79
2023-06-22T09:55:17.113Z,33.76
2023-06-22T09:57:44.722Z,34.31
2023-06-22T10:00:14.386Z,34.19
2023-06-22T10:02:43.752Z,34.54
2023-06-22T10:05:11.902Z,34.71
2023-06-22T10:07:43.847Z,34.87
2023-06-22T10:10:13.372Z,35.12
2023-06-22T10:12:55.544Z,35.40
2023-06-22T10:15:23.140Z,35.54
2023-06-22T10:17:51.075Z,35.61
2023-06-22T10:20:19.759Z,36.11
2023-06-22T10:22:47.843Z,36.21
2023-06-22T10:25:15.461Z,36.24
2023-06-22T10:27:42.972Z,36.43
2023-06-22T10:30:15.611Z,36.49
2023-06-22T10:32:44.964Z,36.67
2023-06-22T10:35:14.819Z,36.45
2023-06-22T10:37:47.008Z,36.19
2023-06-22T10:40:19.837Z,35.92
2023-06-22T10:42:47.303Z,36.11
2023-06-22T10:45:15.035Z,36.18
2023-06-22T10:47:45.204Z,36.65
2023-06-22T10:50:13.064Z,36.90
2023-06-22T10:52:41.266Z,37.02
2023-06-22T10:55:10.717Z,36.83
2023-06-22T10:57:40.157Z,35.43
2023-06-22T11:00:13.407Z,35.87
2023-06-22T11:02:41.078Z,36.27
2023-06-22T11:05:11.400Z,36.19
2023-06-22T11:10:17.451Z,36.21
2023-06-22T11:12:44.929Z,36.49
2023-06-22T11:15:12.308Z,36.93
2023-06-22T11:17:39.678Z,36.37
2023-06-22T11:20:12.495Z,36.26
2023-06-22T11:22:42.341Z,35.71
2023-06-22T11:25:12.453Z,36.24
2023-06-22T11:27:40.269Z,36.09
2023-06-22T11:30:09.037Z,36.26
2023-06-22T11:32:36.945Z,36.00
2023-06-22T11:35:04.802Z,34.92
2023-06-22T11:37:32.007Z,35.12
2023-06-22T11:40:06.838Z,35.92
2023-06-22T11:42:36.406Z,35.81
2023-06-22T11:45:06.566Z,36.26
2023-06-22T11:47:34.056Z,36.02
2023-06-22T11:50:01.698Z,36.13
2023-06-22T11:52:29.675Z,36.59
2023-06-22T11:54:57.088Z,36.84
2023-06-22T11:57:24.267Z,35.97
2023-06-22T11:59:52.526Z,35.44
2023-06-22T12:02:19.778Z,36.32
2023-06-22T12:04:47.566Z,36.48
2023-06-22T12:07:15.355Z,36.12
2023-06-22T12:09:43.267Z,35.96
2023-06-22T12:12:11.381Z,36.58
2023-06-22T12:14:38.997Z,36.73
2023-06-22T12:17:06.490Z,36.21
2023-06-22T12:19:33.776Z,36.47
2023-06-22T12:22:01.448Z,36.91
2023-06-22T12:24:29.081Z,37.16
2023-06-22T12:26:56.691Z,36.67
2023-06-22T12:29:23.927Z,36.41
2023-06-22T12:31:51.268Z,36.84
2023-06-22T12:34:18.629Z,36.71
2023-06-22T12:36:48.455Z,36.78
2023-06-22T12:39:16.372Z,36.63
2023-06-22T12:41:43.769Z,35.98
2023-06-22T12:44:11.448Z,35.78
2023-06-22T12:46:39.402Z,35.46
2023-06-22T12:49:07.468Z,35.61
2023-06-22T12:51:35.225Z,35.38
2023-06-22T12:54:03.091Z,35.40
2023-06-22T12:56:30.406Z,35.18
2023-06-22T12:58:58.408Z,35.36
2023-06-22T13:01:25.938Z,35.46
2023-06-22T13:03:53.450Z,35.25
2023-06-22T13:06:21.325Z,35.12
2023-06-22T13:11:20.934Z,35.09
2023-06-22T13:13:48.863Z,35.19
2023-06-22T13:16:16.174Z,35.29
2023-06-22T13:18:43.371Z,35.32
2023-06-22T13:21:10.554Z,35.62
2023-06-22T13:23:38.059Z,35.81
2023-06-22T13:26:05.752Z,36.25
2023-06-22T13:28:33.087Z,36.81
2023-06-22T13:31:00.423Z,37.00
2023-06-22T13:33:27.846Z,37.16
2023-06-22T13:35:55.053Z,36.80
2023-06-22T13:38:23.404Z,35.98
2023-06-22T13:40:51.267Z,35.63
2023-06-22T13:43:18.933Z,36.23
2023-06-22T13:45:46.333Z,36.42
2023-06-22T13:48:13.923Z,37.01
2023-06-22T13:50:41.381Z,37.41
2023-06-22T13:53:09.044Z,37.56
2023-06-22T13:55:36.338Z,37.85
2023-06-22T13:58:03.576Z,38.40
2023-06-22T14:00:31.335Z,38.80
2023-06-22T14:02:59.338Z,39.21
2023-06-22T14:05:27.510Z,39.73
2023-06-22T14:07:55.254Z,40.04
2023-06-22T14:10:22.567Z,40.03
2023-06-22T14:12:50.024Z,39.43
2023-06-22T14:15:17.448Z,39.63
2023-06-22T14:17:45.005Z,39.72
2023-06-22T14:20:13.052Z,40.01
2023-06-22T14:22:41.314Z,39.44
2023-06-22T14:25:08.966Z,39.27
2023-06-22T14:27:36.387Z,39.45
2023-06-22T14:30:06.152Z,39.56
2023-06-22T14:32:34.562Z,39.86
2023-06-22T14:35:01.846Z,39.55
2023-06-22T14:37:29.524Z,39.74
2023-06-22T14:39:57.224Z,40.86
2023-06-22T14:42:24.938Z,42.03
2023-06-22T14:44:52.447Z,42.02
2023-06-22T14:47:20.426Z,41.65
2023-06-22T14:49:48.920Z,42.59
2023-06-22T14:52:16.302Z,42.99
2023-06-22T14:54:47.136Z,43.72
2023-06-22T14:57:19.066Z,43.07
2023-06-22T14:59:50.640Z,43.22
2023-06-22T15:02:20.743Z,42.14
2023-06-22T15:04:48.452Z,42.17
2023-06-22T15:07:16.133Z,40.95
2023-06-22T15:09:46.266Z,39.89
2023-06-22T15:12:13.917Z,39.66
2023-06-22T15:14:42.494Z,39.51
2023-06-22T15:17:11.101Z,38.74
2023-06-22T15:19:39.059Z,39.68
2023-06-22T15:22:10.015Z,40.37
2023-06-22T15:24:37.734Z,39.00
2023-06-22T15:27:05.678Z,39.38
2023-06-22T15:29:35.208Z,39.03
2023-06-22T15:32:03.194Z,39.04
2023-06-22T15:34:30.953Z,38.08
2023-06-22T15:36:58.933Z,37.51
2023-06-22T15:39:27.692Z,36.78
2023-06-22T15:41:55.337Z,36.75
2023-06-22T15:44:25.927Z,36.56
2023-06-22T15:46:53.996Z,36.49
2023-06-22T15:49:21.603Z,36.56
2023-06-22T15:51:49.266Z,36.26
2023-06-22T15:54:17.418Z,36.50
2023-06-22T15:56:45.280Z,37.26
2023-06-22T15:59:12.555Z,37.69
2023-06-22T16:01:39.975Z,36.54
2023-06-22T16:04:08.065Z,36.04
2023-06-22T16:06:37.009Z,35.71
2023-06-22T16:09:06.238Z,35.28
2023-06-22T16:11:34.142Z,34.65
2023-06-22T16:14:01.850Z,34.34
2023-06-22T16:16:32.708Z,34.44
2023-06-22T16:19:00.304Z,33.96
2023-06-22T16:21:27.880Z,33.83
2023-06-22T16:23:55.384Z,33.83
2023-06-22T16:26:22.922Z,34.15
2023-06-22T16:28:50.468Z,33.78
2023-06-22T16:31:17.831Z,33.96
2023-06-22T16:33:48.910Z,33.72
2023-06-22T16:36:16.839Z,33.79
2023-06-22T16:38:44.592Z,33.71
2023-06-22T16:41:12.673Z,33.39
2023-06-22T16:43:40.502Z,33.20
2023-06-22T16:46:08.342Z,33.00
2023-06-22T16:48:38.483Z,32.91
2023-06-22T16:51:08.251Z,32.62
2023-06-22T16:53:36.356Z,32.27
2023-06-22T16:56:04.505Z,32.19
2023-06-22T16:58:33.263Z,32.60
2023-06-22T17:01:01.895Z,32.44
2023-06-22T17:03:39.484Z,31.90
2023-06-22T17:06:08.513Z,32.02
2023-06-22T17:08:38.143Z,32.18
2023-06-22T17:11:06.354Z,32.02
2023-06-22T17:13:36.956Z,31.82
2023-06-22T17:16:06.689Z,31.65
2023-06-22T17:18:34.814Z,31.68
2023-06-22T17:21:02.082Z,31.99
2023-06-22T17:23:30.271Z,31.42
2023-06-22T17:26:01.969Z,31.38
2023-06-22T17:28:50.593Z,31.09
2023-06-22T17:31:18.981Z,31.15
2023-06-22T17:33:51.137Z,31.07
2023-06-22T17:36:18.914Z,31.02
2023-06-22T17:38:46.740Z,30.91
2023-06-22T17:41:14.428Z,30.28
2023-06-22T17:43:47.672Z,30.18
2023-06-22T17:46:17.623Z,30.22
2023-06-22T17:48:48.964Z,30.08
2023-06-22T17:51:17.197Z,30.05
2023-06-22T17:53:51.273Z,29.76
2023-06-22T17:56:20.746Z,29.83
2023-06-22T17:58:55.200Z,29.69
2023-06-22T18:01:43.027Z,29.28
2023-06-22T18:04:15.915Z,29.42
2023-06-22T18:06:47.319Z,29.25
2023-06-22T18:09:17.694Z,29.26
2023-06-22T18:11:51.696Z,28.99
2023-06-22T18:14:21.411Z,28.97
2023-06-22T18:16:52.769Z,28.88
2023-06-22T18:19:20.717Z,28.65
2023-06-22T18:21:50.261Z,28.49
2023-06-22T18:24:20.634Z,28.50
2023-06-22T18:26:48.626Z,28.28
2023-06-22T18:29:17.064Z,28.40
2023-06-22T18:31:44.828Z,28.41
2023-06-22T18:34:13.078Z,28.30
2023-06-22T18:36:50.536Z,28.36
2023-06-22T18:39:20.871Z,28.29
2023-06-22T18:41:56.237Z,28.06
2023-06-22T18:44:32.820Z,28.25
2023-06-22T18:47:06.303Z,28.31
2023-06-22T18:49:54.016Z,28.10
2023-06-22T18:52:28.375Z,28.36
2023-06-22T18:54:57.361Z,27.90
2023-06-22T18:57:34.954Z,27.92
2023-06-22T19:00:10.594Z,27.70
2023-06-22T19:02:45.185Z,27.31
2023-06-22T19:05:12.984Z,27.33
2023-06-22T19:07:53.371Z,27.53
2023-06-22T19:10:44.017Z,27.59
2023-06-22T19:13:17.678Z,27.42
2023-06-22T19:15:48.112Z,27.16
2023-06-22T19:18:21.480Z,27.09
2023-06-22T19:21:03.061Z,26.38
2023-06-22T19:23:37.883Z,25.97
2023-06-22T19:26:13.995Z,25.64
2023-06-22T19:28:57.739Z,25.62
2023-06-22T19:31:28.913Z,25.56
2023-06-22T19:34:06.496Z,25.76
2023-06-22T19:36:36.283Z,25.80
2023-06-22T19:39:06.176Z,26.00
2023-06-22T19:41:34.517Z,25.92
2023-06-22T19:44:01.790Z,25.78
2023-06-22T19:46:33.351Z,25.93
2023-06-22T19:49:01.549Z,25.58
2023-06-22T19:51:36.744Z,25.62
2023-06-22T19:54:16.616Z,25.49
2023-06-22T19:56:45.338Z,25.53
2023-06-22T19:59:16.760Z,25.52
2023-06-22T20:01:47.795Z,25.36
2023-06-22T20:04:15.683Z,25.08
2023-06-22T20:07:06.568Z,24.79
2023-06-22T20:09:34.963Z,24.57
2023-06-22T20:12:02.789Z,24.77
2023-06-22T20:14:35.329Z,24.57
2023-06-22T20:17:06.275Z,24.58
2023-06-22T20:19:42.412Z,24.37
2023-06-22T20:22:11.839Z,24.48
2023-06-22T20:24:42.523Z,24.58
2023-06-22T20:27:14.305Z,24.53
2023-06-22T20:29:44.814Z,24.31
2023-06-22T20:32:14.859Z,24.13
2023-06-22T20:34:48.873Z,24.22
2023-06-22T20:37:23.265Z,24.45
2023-06-22T20:39:50.721Z,24.47
2023-06-22T20:42:21.133Z,24.43
2023-06-22T20:44:51.477Z,24.49
2023-06-22T20:47:21.682Z,24.52
2023-06-22T20:49:50.464Z,24.45
2023-06-22T20:52:21.773Z,24.39
2023-06-22T20:54:49.361Z,24.35
2023-06-22T20:57:16.786Z,24.44
2023-06-22T20:59:44.035Z,24.50
2023-06-22T21:02:12.049Z,24.62
2023-06-22T21:04:42.500Z,24.68
2023-06-22T21:07:10.273Z,24.75
2023-06-22T21:09:50.235Z,24.66
2023-06-22T21:12:20.087Z,24.57
2023-06-22T21:14:48.133Z,24.55
2023-06-22T21:17:15.729Z,24.59
2023-06-22T21:19:43.271Z,24.73
2023-06-22T21:22:10.811Z,24.80
2023-06-22T21:24:38.204Z,24.94
2023-06-22T21:27:06.175Z,24.97
2023-06-22T21:29:33.974Z,24.90
2023-06-22T21:32:01.255Z,24.71
2023-06-22T21:34:28.556Z,24.65
2023-06-22T21:36:56.252Z,24.62
2023-06-22T21:39:24.071Z,24.60
2023-06-22T21:41:51.483Z,24.71
2023-06-22T21:44:19.095Z,24.63
2023-06-22T21:46:46.364Z,24.66
2023-06-22T21:49:13.952Z,24.60
2023-06-22T21:51:41.313Z,24.30
2023-06-22T21:54:09.081Z,24.21
2023-06-22T21:56:36.515Z,24.00
2023-06-22T21:59:04.224Z,24.01
2023-06-22T22:01:31.495Z,23.85
2023-06-22T22:03:59.276Z,23.92
2023-06-22T22:06:29.254Z,23.88
2023-06-22T22:08:56.994Z,23.91
2023-06-22T22:11:24.946Z,23.65
2023-06-22T22:13:53.664Z,23.59
2023-06-22T22:16:20.918Z,23.70
2023-06-22T22:18:48.363Z,23.60
2023-06-22T22:21:16.742Z,23.67
2023-06-22T22:23:43.951Z,23.65
2023-06-22T22:26:11.377Z,23.51
2023-06-22T22:28:38.741Z,23.59
2023-06-22T22:31:06.114Z,23.36
2023-06-22T22:33:34.357Z,23.38
2023-06-22T22:36:05.587Z,23.30
2023-06-22T22:38:36.880Z,23.36
2023-06-22T22:41:04.809Z,23.19
2023-06-22T22:43:33.668Z,23.22
2023-06-22T22:46:01.680Z,23.17
2023-06-22T22:48:32.149Z,23.20
2023-06-22T22:51:00.926Z,23.18
2023-06-22T22:53:28.445Z,23.29
2023-06-22T22:55:56.028Z,23.13
2023-06-22T22:58:23.242Z,22.82
2023-06-22T23:00:50.667Z,22.60
2023-06-22T23:03:18.339Z,22.71
2023-06-22T23:05:46.194Z,22.80
2023-06-22T23:08:14.744Z,22.98
2023-06-22T23:10:42.886Z,22.90
2023-06-22T23:13:10.428Z,22.98
2023-06-22T23:15:37.658Z,22.77
2023-06-22T23:18:05.259Z,23.06
2023-06-22T23:20:32.936Z,22.96
2023-06-22T23:23:00.373Z,22.92
2023-06-22T23:25:28.324Z,23.09
2023-06-22T23:27:57.856Z,22.86
2023-06-22T23:30:27.373Z,22.75
2023-06-22T23:32:57.545Z,22.71
2023-06-22T23:35:24.796Z,22.79
2023-06-22T23:37:53.657Z,22.96
2023-06-22T23:40:21.297Z,22.99
2023-06-22T23:42:50.019Z,23.03
2023-06-22T23:45:20.242Z,22.72
2023-06-22T23:47:51.925Z,22.75
2023-06-22T23:50:19.406Z,22.75
2023-06-22T23:52:51.174Z,22.62
2023-06-22T23:55:24.250Z,22.60
2023-06-22T23:57:58.263Z,22.71
